Containerships 6 — DABH — position and weather

sailwx.info

Track history (hours):
 
Tides and Currents Weather Stations Pressure Air Temp Water Temp Dewpoint Dewpoint Depression Visibility Wind Speed Wind Dir Waves Ship Positions

Containerships 6

Last reported at 2014-Nov-27 23:33 UTC. Time now 2014-Nov-28 00:18 UTC.
Position N 55°48' E 012°43'.

Length 155 m; beam 21.8 m; draft 8.9 m.

Type: Ship (hazmat cat A). MMSI: 211315096.

Date/timePositionNaut miles runAvg speedWind from/ knotsBaromVisibWave heightAir tempDewpointWater temp
2014-Nov-27 23:33N 55°48' E 012°43'1616.3
2014-Nov-27 22:34N 55°31' E 012°43'1514.7
2014-Nov-27 21:34N 55°17' E 012°48'1919.0
2014-Nov-27 20:33N 55°15' E 013°21'1919.3
2014-Nov-27 19:33N 55°14' E 013°55'1717.0
2014-Nov-27 18:33N 55°19' E 014°23'1918.9
2014-Nov-27 17:33N 55°30' E 014°50'1919.1
2014-Nov-27 16:32N 55°40' E 015°20'34318.6
2014-Nov-26 22:09N 59°35' E 023°06'1118.8
2014-Nov-26 21:33N 59°39' E 023°27'1918.8
2014-Nov-26 20:32N 59°44' E 024°03'1818.7
2014-Nov-26 19:33N 59°50' E 024°38'29 4.8
2014-Nov-26 13:33N 60°13' E 025°12'0 0.0
2014-Nov-26 12:33N 60°13' E 025°12'0 0.0
2014-Nov-26 11:33N 60°13' E 025°12'0 0.0
2014-Nov-26 10:33N 60°13' E 025°12'0 0.0
2014-Nov-26 09:33N 60°13' E 025°12'0 0.0
2014-Nov-26 08:33N 60°13' E 025°12'0 0.0
2014-Nov-26 07:33N 60°13' E 025°12'0 0.0
2014-Nov-26 06:33N 60°13' E 025°12'4 4.3
2014-Nov-26 05:34N 60°08' E 025°12'3413.6
2014-Nov-26 03:06N 60°00' E 026°18'917.3
2014-Nov-26 02:33N 60°02' E 026°36'1816.5
2014-Nov-26 01:27N 60°02' E 027°12'4 0.2
2014-Nov-24 23:04N 60°03' E 027°20'1115.7
2014-Nov-24 22:22N 59°58' E 027°00'1315.3
2014-Nov-24 21:31N 59°59' E 026°34'4214.1
2014-Nov-24 18:33N 60°08' E 025°12'5 5.2
2014-Nov-24 17:33N 60°13' E 025°12'0 0.0
2014-Nov-24 16:33N 60°13' E 025°12'0 0.0
2014-Nov-24 15:30N 60°13' E 025°12'0 0.0
2014-Nov-24 14:33N 60°13' E 025°12'0 0.0
2014-Nov-24 13:33N 60°13' E 025°12'0 0.0
2014-Nov-24 12:33N 60°13' E 025°12'1 1.1
2014-Nov-24 11:33N 60°12' E 025°13'3015.2
2014-Nov-24 09:33N 59°46' E 024°43'2318.0
2014-Nov-24 08:17N 59°40' E 023°59'1318.0
2014-Nov-24 07:32N 59°36' E 023°34'35317.5
2014-Nov-23 11:22N 55°38' E 015°25'1417.6
2014-Nov-23 10:33N 55°32' E 015°03'1817.6
2014-Nov-23 09:31N 55°22' E 014°36'1718.2
2014-Nov-23 08:33N 55°08' E 014°17'1917.2
2014-Nov-23 07:29N 54°58' E 013°49'3917.5
2014-Nov-23 05:13N 54°45' E 012°45'1217.3
2014-Nov-23 04:32N 54°39' E 012°27'1616.9
2014-Nov-23 03:33N 54°26' E 012°11'4116.5
2014-Nov-23 01:04N 54°35' E 011°02'917.4
2014-Nov-23 00:33N 54°34' E 010°46'1717.3
2014-Nov-22 23:33N 54°29' E 010°18'9 9.2
2014-Nov-22 22:33N 54°22' E 010°09'1 1.3
2014-Nov-22 21:33N 54°22' E 010°06'7 7.3
2014-Nov-22 20:33N 54°21' E 009°54'5 5.4
2014-Nov-22 19:33N 54°20' E 009°45'7 7.4
2014-Nov-22 18:33N 54°15' E 009°37'8 7.6
2014-Nov-22 17:33N 54°10' E 009°26'7 6.3
2014-Nov-22 16:27N 54°05' E 009°19'2 2.7
2014-Nov-22 15:33N 54°02' E 009°18'3 3.1
2014-Nov-22 14:33N 53°59' E 009°17'7 7.4
2014-Nov-22 13:33N 53°54' E 009°09'3 2.9
2014-Nov-22 12:33N 53°52' E 009°05'1514.7
2014-Nov-22 11:34N 53°55' E 008°40'1817.8
2014-Nov-22 10:33N 53°59' E 008°11'1717.0
2014-Nov-22 09:33N 53°57' E 007°42'1818.6
2014-Nov-22 08:34N 53°53' E 007°12'3718.7
2014-Nov-22 06:33N 53°43' E 006°10'1918.6
2014-Nov-22 05:34N 53°37' E 005°41'1918.8
2014-Nov-22 04:33N 53°31' E 005°10'1918.5
2014-Nov-22 03:33N 53°23' E 004°43'2019.7
2014-Nov-22 02:33N 53°05' E 004°27'1919.7
2014-Nov-22 01:34N 52°48' E 004°12'2019.3
2014-Nov-22 00:32N 52°31' E 003°55'1818.7
2014-Nov-21 23:33N 52°13' E 003°54'1414.2
2014-Nov-21 22:33N 51°60' E 004°02'1313.3
2014-Nov-21 21:33N 51°54' E 004°22'2 2.4
2014-Nov-21 20:33N 51°53' E 004°25'0 0.0
2014-Nov-21 19:33N 51°53' E 004°25'0 0.0
2014-Nov-21 18:33N 51°53' E 004°25'0 0.0
2014-Nov-21 17:33N 51°53' E 004°25'0 0.0
2014-Nov-21 16:33N 51°53' E 004°25'0 0.0
2014-Nov-21 15:33N 51°53' E 004°25'0 0.0
2014-Nov-21 14:33N 51°53' E 004°25'0 0.0
2014-Nov-21 13:33N 51°53' E 004°25'0 0.0
2014-Nov-21 12:33N 51°53' E 004°25'0 0.0
2014-Nov-21 11:32N 51°53' E 004°25'0 0.0
2014-Nov-21 10:32N 51°53' E 004°25'0 0.0
2014-Nov-21 09:32N 51°53' E 004°25'0 0.0
2014-Nov-21 08:32N 51°53' E 004°25'0 0.0
2014-Nov-21 07:32N 51°53' E 004°25'0 0.0
2014-Nov-21 06:32N 51°53' E 004°25'0 0.0
2014-Nov-21 05:32N 51°53' E 004°25'0 0.0
2014-Nov-21 04:32N 51°53' E 004°25'0 0.0
2014-Nov-21 03:32N 51°53' E 004°25'0 0.0
2014-Nov-21 02:32N 51°53' E 004°25'0 0.0
2014-Nov-21 01:32N 51°53' E 004°25'0 0.0
2014-Nov-21 00:32N 51°53' E 004°25'0 0.0
2014-Nov-20 23:32N 51°53' E 004°25'0 0.0
2014-Nov-20 22:32N 51°53' E 004°25'0 0.0
2014-Nov-20 21:32N 51°53' E 004°25'2 1.9
2014-Nov-20 20:33N 51°54' E 004°23'1111.4
2014-Nov-20 19:33N 51°59' E 004°06'1514.7
2014-Nov-20 18:33N 52°03' E 003°43'6119.4
2014-Nov-20 15:27N 52°37' E 002°21'1718.9
2014-Nov-20 14:33N 52°46' E 001°58'1817.9
2014-Nov-20 13:34N 52°57' E 001°35'1817.5
2014-Nov-20 12:33N 53°11' E 001°18'3617.7
2014-Nov-20 10:32N 53°42' E 000°47'1717.8
2014-Nov-20 09:33N 53°55' E 000°27'1818.0
2014-Nov-20 08:33N 54°09' E 000°07'1817.8
2014-Nov-20 07:33N 54°22' W 000°13'3528.9
2014-Nov-20 06:20N 54°36' W 001°09'5 6.2
2014-Nov-20 05:33N 54°41' W 001°06'5 0.3
2014-Nov-19 14:21N 54°36' W 001°09'0 0.0
2014-Nov-19 13:32N 54°36' W 001°09'7 6.8
2014-Nov-19 12:33N 54°42' W 001°03'1514.7
2014-Nov-19 11:34N 54°48' W 000°41'1614.7
2014-Nov-19 10:30N 54°55' W 000°16'1718.0
2014-Nov-19 09:33N 55°03' E 000°10'39517.9
2014-Nov-18 11:32N 57°42' E 011°03'1919.1
2014-Nov-18 10:33N 57°28' E 011°26'2019.7
2014-Nov-18 09:33N 57°09' E 011°38'1919.2
2014-Nov-18 08:33N 56°51' E 011°50'1716.9
2014-Nov-18 07:32N 56°34' E 011°42'  
Track history (hours):
 
Tides and Currents Weather Stations Pressure Air Temp Water Temp Dewpoint Dewpoint Depression Visibility Wind Speed Wind Dir Waves Ship Positions

Containerships 6

Last reported at 2014-Nov-27 23:33 UTC. Time now 2014-Nov-28 00:18 UTC.
Position N 55°48' E 012°43'.

Length 155 m; beam 21.8 m; draft 8.9 m.

Type: Ship (hazmat cat A). MMSI: 211315096.

Date/timePositionNaut miles runAvg speedWind from/ knotsBaromVisibWave heightAir tempDewpointWater temp
2014-Nov-27 23:33N 55°48' E 012°43'1616.3
2014-Nov-27 22:34N 55°31' E 012°43'1514.7
2014-Nov-27 21:34N 55°17' E 012°48'1919.0
2014-Nov-27 20:33N 55°15' E 013°21'1919.3
2014-Nov-27 19:33N 55°14' E 013°55'1717.0
2014-Nov-27 18:33N 55°19' E 014°23'1918.9
2014-Nov-27 17:33N 55°30' E 014°50'1919.1
2014-Nov-27 16:32N 55°40' E 015°20'34318.6
2014-Nov-26 22:09N 59°35' E 023°06'1118.8
2014-Nov-26 21:33N 59°39' E 023°27'1918.8
2014-Nov-26 20:32N 59°44' E 024°03'1818.7
2014-Nov-26 19:33N 59°50' E 024°38'29 4.8
2014-Nov-26 13:33N 60°13' E 025°12'0 0.0
2014-Nov-26 12:33N 60°13' E 025°12'0 0.0
2014-Nov-26 11:33N 60°13' E 025°12'0 0.0
2014-Nov-26 10:33N 60°13' E 025°12'0 0.0
2014-Nov-26 09:33N 60°13' E 025°12'0 0.0
2014-Nov-26 08:33N 60°13' E 025°12'0 0.0
2014-Nov-26 07:33N 60°13' E 025°12'0 0.0
2014-Nov-26 06:33N 60°13' E 025°12'4 4.3
2014-Nov-26 05:34N 60°08' E 025°12'3413.6
2014-Nov-26 03:06N 60°00' E 026°18'917.3
2014-Nov-26 02:33N 60°02' E 026°36'1816.5
2014-Nov-26 01:27N 60°02' E 027°12'4 0.2
2014-Nov-24 23:04N 60°03' E 027°20'1115.7
2014-Nov-24 22:22N 59°58' E 027°00'1315.3
2014-Nov-24 21:31N 59°59' E 026°34'4214.1
2014-Nov-24 18:33N 60°08' E 025°12'5 5.2
2014-Nov-24 17:33N 60°13' E 025°12'0 0.0
2014-Nov-24 16:33N 60°13' E 025°12'0 0.0
2014-Nov-24 15:30N 60°13' E 025°12'0 0.0
2014-Nov-24 14:33N 60°13' E 025°12'0 0.0
2014-Nov-24 13:33N 60°13' E 025°12'0 0.0
2014-Nov-24 12:33N 60°13' E 025°12'1 1.1
2014-Nov-24 11:33N 60°12' E 025°13'3015.2
2014-Nov-24 09:33N 59°46' E 024°43'2318.0
2014-Nov-24 08:17N 59°40' E 023°59'1318.0
2014-Nov-24 07:32N 59°36' E 023°34'35317.5
2014-Nov-23 11:22N 55°38' E 015°25'1417.6
2014-Nov-23 10:33N 55°32' E 015°03'1817.6
2014-Nov-23 09:31N 55°22' E 014°36'1718.2
2014-Nov-23 08:33N 55°08' E 014°17'1917.2
2014-Nov-23 07:29N 54°58' E 013°49'3917.5
2014-Nov-23 05:13N 54°45' E 012°45'1217.3
2014-Nov-23 04:32N 54°39' E 012°27'1616.9
2014-Nov-23 03:33N 54°26' E 012°11'4116.5
2014-Nov-23 01:04N 54°35' E 011°02'917.4
2014-Nov-23 00:33N 54°34' E 010°46'1717.3
2014-Nov-22 23:33N 54°29' E 010°18'9 9.2
2014-Nov-22 22:33N 54°22' E 010°09'1 1.3
2014-Nov-22 21:33N 54°22' E 010°06'7 7.3
2014-Nov-22 20:33N 54°21' E 009°54'5 5.4
2014-Nov-22 19:33N 54°20' E 009°45'7 7.4
2014-Nov-22 18:33N 54°15' E 009°37'8 7.6
2014-Nov-22 17:33N 54°10' E 009°26'7 6.3
2014-Nov-22 16:27N 54°05' E 009°19'2 2.7
2014-Nov-22 15:33N 54°02' E 009°18'3 3.1
2014-Nov-22 14:33N 53°59' E 009°17'7 7.4
2014-Nov-22 13:33N 53°54' E 009°09'3 2.9
2014-Nov-22 12:33N 53°52' E 009°05'1514.7
2014-Nov-22 11:34N 53°55' E 008°40'1817.8
2014-Nov-22 10:33N 53°59' E 008°11'1717.0
2014-Nov-22 09:33N 53°57' E 007°42'1818.6
2014-Nov-22 08:34N 53°53' E 007°12'3718.7
2014-Nov-22 06:33N 53°43' E 006°10'1918.6
2014-Nov-22 05:34N 53°37' E 005°41'1918.8
2014-Nov-22 04:33N 53°31' E 005°10'1918.5
2014-Nov-22 03:33N 53°23' E 004°43'2019.7
2014-Nov-22 02:33N 53°05' E 004°27'1919.7
2014-Nov-22 01:34N 52°48' E 004°12'2019.3
2014-Nov-22 00:32N 52°31' E 003°55'1818.7
2014-Nov-21 23:33N 52°13' E 003°54'1414.2
2014-Nov-21 22:33N 51°60' E 004°02'1313.3
2014-Nov-21 21:33N 51°54' E 004°22'2 2.4
2014-Nov-21 20:33N 51°53' E 004°25'0 0.0
2014-Nov-21 19:33N 51°53' E 004°25'0 0.0
2014-Nov-21 18:33N 51°53' E 004°25'0 0.0
2014-Nov-21 17:33N 51°53' E 004°25'0 0.0
2014-Nov-21 16:33N 51°53' E 004°25'0 0.0
2014-Nov-21 15:33N 51°53' E 004°25'0 0.0
2014-Nov-21 14:33N 51°53' E 004°25'0 0.0
2014-Nov-21 13:33N 51°53' E 004°25'0 0.0
2014-Nov-21 12:33N 51°53' E 004°25'0 0.0
2014-Nov-21 11:32N 51°53' E 004°25'0 0.0
2014-Nov-21 10:32N 51°53' E 004°25'0 0.0
2014-Nov-21 09:32N 51°53' E 004°25'0 0.0
2014-Nov-21 08:32N 51°53' E 004°25'0 0.0
2014-Nov-21 07:32N 51°53' E 004°25'0 0.0
2014-Nov-21 06:32N 51°53' E 004°25'0 0.0
2014-Nov-21 05:32N 51°53' E 004°25'0 0.0
2014-Nov-21 04:32N 51°53' E 004°25'0 0.0
2014-Nov-21 03:32N 51°53' E 004°25'0 0.0
2014-Nov-21 02:32N 51°53' E 004°25'0 0.0
2014-Nov-21 01:32N 51°53' E 004°25'0 0.0
2014-Nov-21 00:32N 51°53' E 004°25'0 0.0
2014-Nov-20 23:32N 51°53' E 004°25'0 0.0
2014-Nov-20 22:32N 51°53' E 004°25'0 0.0
2014-Nov-20 21:32N 51°53' E 004°25'2 1.9
2014-Nov-20 20:33N 51°54' E 004°23'1111.4
2014-Nov-20 19:33N 51°59' E 004°06'1514.7
2014-Nov-20 18:33N 52°03' E 003°43'6119.4
2014-Nov-20 15:27N 52°37' E 002°21'1718.9
2014-Nov-20 14:33N 52°46' E 001°58'1817.9
2014-Nov-20 13:34N 52°57' E 001°35'1817.5
2014-Nov-20 12:33N 53°11' E 001°18'3617.7
2014-Nov-20 10:32N 53°42' E 000°47'1717.8
2014-Nov-20 09:33N 53°55' E 000°27'1818.0
2014-Nov-20 08:33N 54°09' E 000°07'1817.8
2014-Nov-20 07:33N 54°22' W 000°13'3528.9
2014-Nov-20 06:20N 54°36' W 001°09'5 6.2
2014-Nov-20 05:33N 54°41' W 001°06'5 0.3
2014-Nov-19 14:21N 54°36' W 001°09'0 0.0
2014-Nov-19 13:32N 54°36' W 001°09'7 6.8
2014-Nov-19 12:33N 54°42' W 001°03'1514.7
2014-Nov-19 11:34N 54°48' W 000°41'1614.7
2014-Nov-19 10:30N 54°55' W 000°16'1718.0
2014-Nov-19 09:33N 55°03' E 000°10'39517.9
2014-Nov-18 11:32N 57°42' E 011°03'1919.1
2014-Nov-18 10:33N 57°28' E 011°26'2019.7
2014-Nov-18 09:33N 57°09' E 011°38'1919.2
2014-Nov-18 08:33N 56°51' E 011°50'1716.9
2014-Nov-18 07:32N 56°34' E 011°42'  

Dump ship's entire track history